sensor_id;sensor_type;location;lat;lon;timestamp;P1;durP1;ratioP1;P2;durP2;ratioP2
60169;SDS011;46042;49.444;6.862;2024-03-23T00:55:41;14.38;;;9.43;;
60169;SDS011;46042;49.444;6.862;2024-03-23T00:58:07;14.23;;;8.50;;
60169;SDS011;46042;49.444;6.862;2024-03-23T01:00:33;16.73;;;9.95;;
60169;SDS011;46042;49.444;6.862;2024-03-23T01:03:00;16.08;;;10.82;;
60169;SDS011;46042;49.444;6.862;2024-03-23T01:05:26;21.50;;;12.52;;
60169;SDS011;46042;49.444;6.862;2024-03-23T01:07:51;18.33;;;11.48;;
60169;SDS011;46042;49.444;6.862;2024-03-23T01:10:17;19.92;;;12.35;;
60169;SDS011;46042;49.444;6.862;2024-03-23T01:12:43;19.85;;;11.95;;
60169;SDS011;46042;49.444;6.862;2024-03-23T01:15:09;22.00;;;11.48;;
60169;SDS011;46042;49.444;6.862;2024-03-23T01:17:35;19.13;;;12.98;;
60169;SDS011;46042;49.444;6.862;2024-03-23T01:20:01;17.45;;;12.18;;
60169;SDS011;46042;49.444;6.862;2024-03-23T01:22:28;22.38;;;13.80;;
60169;SDS011;46042;49.444;6.862;2024-03-23T01:24:53;21.67;;;13.23;;
60169;SDS011;46042;49.444;6.862;2024-03-23T01:27:19;18.08;;;11.80;;
60169;SDS011;46042;49.444;6.862;2024-03-23T01:29:46;22.00;;;12.30;;
60169;SDS011;46042;49.444;6.862;2024-03-23T01:32:12;19.90;;;11.43;;
60169;SDS011;46042;49.444;6.862;2024-03-23T01:34:38;20.95;;;12.25;;
60169;SDS011;46042;49.444;6.862;2024-03-23T01:37:04;17.40;;;11.95;;
60169;SDS011;46042;49.444;6.862;2024-03-23T01:39:30;22.45;;;12.15;;
60169;SDS011;46042;49.444;6.862;2024-03-23T01:41:55;20.25;;;11.85;;
60169;SDS011;46042;49.444;6.862;2024-03-23T01:44:21;21.50;;;12.93;;
60169;SDS011;46042;49.444;6.862;2024-03-23T01:46:47;22.65;;;12.65;;
60169;SDS011;46042;49.444;6.862;2024-03-23T01:49:13;24.55;;;11.98;;
60169;SDS011;46042;49.444;6.862;2024-03-23T01:51:39;21.90;;;12.80;;
60169;SDS011;46042;49.444;6.862;2024-03-23T01:54:06;18.08;;;12.32;;
60169;SDS011;46042;49.444;6.862;2024-03-23T01:56:33;20.30;;;11.65;;
60169;SDS011;46042;49.444;6.862;2024-03-23T01:59:01;17.77;;;11.57;;
60169;SDS011;46042;49.444;6.862;2024-03-23T02:01:30;21.23;;;11.73;;
60169;SDS011;46042;49.444;6.862;2024-03-23T02:04:05;18.27;;;10.65;;
60169;SDS011;46042;49.444;6.862;2024-03-23T02:06:30;22.67;;;11.85;;
60169;SDS011;46042;49.444;6.862;2024-03-23T02:08:56;16.27;;;9.93;;
60169;SDS011;46042;49.444;6.862;2024-03-23T02:11:23;19.00;;;10.95;;
60169;SDS011;46042;49.444;6.862;2024-03-23T02:13:49;17.77;;;10.25;;
60169;SDS011;46042;49.444;6.862;2024-03-23T02:16:14;17.88;;;10.90;;
60169;SDS011;46042;49.444;6.862;2024-03-23T02:18:40;16.83;;;10.20;;
60169;SDS011;46042;49.444;6.862;2024-03-23T02:21:06;14.88;;;9.20;;
60169;SDS011;46042;49.444;6.862;2024-03-23T02:23:31;14.90;;;9.45;;
60169;SDS011;46042;49.444;6.862;2024-03-23T02:25:57;14.80;;;8.63;;
60169;SDS011;46042;49.444;6.862;2024-03-23T02:28:23;14.98;;;8.98;;
60169;SDS011;46042;49.444;6.862;2024-03-23T02:30:49;14.43;;;9.23;;
60169;SDS011;46042;49.444;6.862;2024-03-23T02:33:15;12.35;;;8.65;;
60169;SDS011;46042;49.444;6.862;2024-03-23T02:35:42;16.08;;;8.48;;
60169;SDS011;46042;49.444;6.862;2024-03-23T02:38:08;12.57;;;7.60;;
60169;SDS011;46042;49.444;6.862;2024-03-23T02:40:34;10.80;;;7.22;;
60169;SDS011;46042;49.444;6.862;2024-03-23T02:43:02;13.50;;;7.18;;
60169;SDS011;46042;49.444;6.862;2024-03-23T02:45:29;10.00;;;7.38;;
60169;SDS011;46042;49.444;6.862;2024-03-23T02:47:55;11.45;;;8.15;;
60169;SDS011;46042;49.444;6.862;2024-03-23T02:50:21;11.23;;;7.28;;
60169;SDS011;46042;49.444;6.862;2024-03-23T02:52:47;15.25;;;7.28;;
60169;SDS011;46042;49.444;6.862;2024-03-23T02:55:13;11.80;;;7.13;;
60169;SDS011;46042;49.444;6.862;2024-03-23T02:57:39;11.95;;;7.13;;
60169;SDS011;46042;49.444;6.862;2024-03-23T03:00:06;9.77;;;6.90;;
60169;SDS011;46042;49.444;6.862;2024-03-23T03:02:33;9.05;;;6.03;;
60169;SDS011;46042;49.444;6.862;2024-03-23T03:04:59;9.13;;;6.35;;
60169;SDS011;46042;49.444;6.862;2024-03-23T03:07:25;11.90;;;6.45;;
60169;SDS011;46042;49.444;6.862;2024-03-23T03:09:51;7.95;;;4.93;;
60169;SDS011;46042;49.444;6.862;2024-03-23T03:12:17;7.13;;;4.90;;
60169;SDS011;46042;49.444;6.862;2024-03-23T03:14:43;6.72;;;3.50;;
60169;SDS011;46042;49.444;6.862;2024-03-23T03:17:08;4.43;;;3.00;;
60169;SDS011;46042;49.444;6.862;2024-03-23T03:19:34;3.20;;;2.67;;
60169;SDS011;46042;49.444;6.862;2024-03-23T03:22:01;5.28;;;2.38;;
60169;SDS011;46042;49.444;6.862;2024-03-23T03:24:27;3.80;;;2.90;;
60169;SDS011;46042;49.444;6.862;2024-03-23T03:26:52;3.63;;;2.20;;
60169;SDS011;46042;49.444;6.862;2024-03-23T03:29:19;4.07;;;2.35;;
60169;SDS011;46042;49.444;6.862;2024-03-23T03:31:45;2.75;;;1.77;;
60169;SDS011;46042;49.444;6.862;2024-03-23T03:34:11;2.72;;;1.63;;
60169;SDS011;46042;49.444;6.862;2024-03-23T03:36:37;4.13;;;1.52;;
60169;SDS011;46042;49.444;6.862;2024-03-23T03:39:02;5.53;;;1.92;;
60169;SDS011;46042;49.444;6.862;2024-03-23T03:41:29;2.55;;;2.00;;
60169;SDS011;46042;49.444;6.862;2024-03-23T03:43:56;5.05;;;1.40;;
60169;SDS011;46042;49.444;6.862;2024-03-23T03:46:27;3.55;;;1.27;;
60169;SDS011;46042;49.444;6.862;2024-03-23T03:48:56;1.40;;;1.20;;
60169;SDS011;46042;49.444;6.862;2024-03-23T03:51:22;1.50;;;1.20;;
60169;SDS011;46042;49.444;6.862;2024-03-23T03:53:48;1.55;;;1.25;;
60169;SDS011;46042;49.444;6.862;2024-03-23T03:56:14;1.35;;;1.25;;
60169;SDS011;46042;49.444;6.862;2024-03-23T03:58:40;1.42;;;1.00;;
60169;SDS011;46042;49.444;6.862;2024-03-23T04:01:06;1.00;;;0.95;;
60169;SDS011;46042;49.444;6.862;2024-03-23T04:03:33;1.08;;;1.00;;
60169;SDS011;46042;49.444;6.862;2024-03-23T04:05:59;1.98;;;1.50;;
60169;SDS011;46042;49.444;6.862;2024-03-23T04:08:25;0.93;;;0.93;;
60169;SDS011;46042;49.444;6.862;2024-03-23T04:10:51;1.42;;;1.05;;
60169;SDS011;46042;49.444;6.862;2024-03-23T04:13:17;1.25;;;1.15;;
60169;SDS011;46042;49.444;6.862;2024-03-23T04:15:43;0.80;;;0.80;;
60169;SDS011;46042;49.444;6.862;2024-03-23T04:18:08;1.30;;;1.20;;
60169;SDS011;46042;49.444;6.862;2024-03-23T04:20:34;2.95;;;1.00;;
60169;SDS011;46042;49.444;6.862;2024-03-23T04:23:00;1.20;;;1.10;;
60169;SDS011;46042;49.444;6.862;2024-03-23T04:25:26;2.15;;;1.10;;
60169;SDS011;46042;49.444;6.862;2024-03-23T04:27:52;1.23;;;1.23;;
60169;SDS011;46042;49.444;6.862;2024-03-23T04:30:18;1.00;;;1.00;;
60169;SDS011;46042;49.444;6.862;2024-03-23T04:32:44;0.93;;;0.93;;
60169;SDS011;46042;49.444;6.862;2024-03-23T04:35:11;1.77;;;0.85;;
60169;SDS011;46042;49.444;6.862;2024-03-23T04:37:37;0.98;;;0.95;;
60169;SDS011;46042;49.444;6.862;2024-03-23T04:40:06;3.90;;;0.88;;
60169;SDS011;46042;49.444;6.862;2024-03-23T04:42:33;1.00;;;0.98;;
60169;SDS011;46042;49.444;6.862;2024-03-23T04:44:59;0.80;;;0.80;;
60169;SDS011;46042;49.444;6.862;2024-03-23T04:47:25;1.10;;;1.00;;
60169;SDS011;46042;49.444;6.862;2024-03-23T04:49:51;2.35;;;1.20;;
60169;SDS011;46042;49.444;6.862;2024-03-23T04:52:17;1.48;;;1.00;;
60169;SDS011;46042;49.444;6.862;2024-03-23T04:54:43;1.02;;;1.00;;
60169;SDS011;46042;49.444;6.862;2024-03-23T04:57:13;1.10;;;1.00;;
60169;SDS011;46042;49.444;6.862;2024-03-23T04:59:40;0.85;;;0.80;;
60169;SDS011;46042;49.444;6.862;2024-03-23T05:02:06;1.80;;;1.00;;
60169;SDS011;46042;49.444;6.862;2024-03-23T05:04:32;1.17;;;1.08;;
60169;SDS011;46042;49.444;6.862;2024-03-23T05:06:58;0.70;;;0.70;;
60169;SDS011;46042;49.444;6.862;2024-03-23T05:09:24;1.10;;;0.90;;
60169;SDS011;46042;49.444;6.862;2024-03-23T05:11:55;1.25;;;1.15;;
60169;SDS011;46042;49.444;6.862;2024-03-23T05:14:23;1.13;;;1.02;;
60169;SDS011;46042;49.444;6.862;2024-03-23T05:16:49;1.08;;;1.08;;
60169;SDS011;46042;49.444;6.862;2024-03-23T05:19:16;0.80;;;0.80;;
60169;SDS011;46042;49.444;6.862;2024-03-23T05:21:43;0.90;;;0.90;;
60169;SDS011;46042;49.444;6.862;2024-03-23T05:24:09;0.90;;;0.90;;
60169;SDS011;46042;49.444;6.862;2024-03-23T05:26:35;1.15;;;0.90;;
60169;SDS011;46042;49.444;6.862;2024-03-23T05:29:01;0.95;;;0.82;;
60169;SDS011;46042;49.444;6.862;2024-03-23T05:31:28;1.73;;;0.80;;
60169;SDS011;46042;49.444;6.862;2024-03-23T05:33:56;0.70;;;0.70;;
60169;SDS011;46042;49.444;6.862;2024-03-23T05:36:22;0.80;;;0.80;;
60169;SDS011;46042;49.444;6.862;2024-03-23T05:38:51;0.90;;;0.90;;
60169;SDS011;46042;49.444;6.862;2024-03-23T05:41:17;1.38;;;1.13;;
60169;SDS011;46042;49.444;6.862;2024-03-23T05:43:43;1.05;;;0.80;;
60169;SDS011;46042;49.444;6.862;2024-03-23T05:46:09;0.70;;;0.70;;
60169;SDS011;46042;49.444;6.862;2024-03-23T05:48:35;1.48;;;1.00;;
60169;SDS011;46042;49.444;6.862;2024-03-23T05:51:01;1.60;;;0.95;;
60169;SDS011;46042;49.444;6.862;2024-03-23T05:53:28;1.85;;;1.17;;
60169;SDS011;46042;49.444;6.862;2024-03-23T05:56:01;2.53;;;1.15;;
60169;SDS011;46042;49.444;6.862;2024-03-23T05:58:32;1.42;;;1.30;;
60169;SDS011;46042;49.444;6.862;2024-03-23T06:01:01;5.72;;;1.30;;
60169;SDS011;46042;49.444;6.862;2024-03-23T06:03:30;4.10;;;1.55;;
60169;SDS011;46042;49.444;6.862;2024-03-23T06:05:57;2.67;;;1.13;;
60169;SDS011;46042;49.444;6.862;2024-03-23T06:08:22;2.20;;;1.20;;
60169;SDS011;46042;49.444;6.862;2024-03-23T06:10:49;1.63;;;1.20;;
60169;SDS011;46042;49.444;6.862;2024-03-23T06:13:16;1.10;;;1.00;;
60169;SDS011;46042;49.444;6.862;2024-03-23T06:15:42;6.97;;;1.77;;
60169;SDS011;46042;49.444;6.862;2024-03-23T06:18:08;2.22;;;1.27;;
60169;SDS011;46042;49.444;6.862;2024-03-23T06:20:34;3.33;;;1.77;;
60169;SDS011;46042;49.444;6.862;2024-03-23T06:23:03;2.63;;;1.42;;
60169;SDS011;46042;49.444;6.862;2024-03-23T06:25:53;5.85;;;1.65;;
60169;SDS011;46042;49.444;6.862;2024-03-23T06:28:19;4.68;;;2.35;;
60169;SDS011;46042;49.444;6.862;2024-03-23T06:30:46;3.00;;;2.13;;
60169;SDS011;46042;49.444;6.862;2024-03-23T06:33:12;4.97;;;1.77;;
60169;SDS011;46042;49.444;6.862;2024-03-23T06:35:37;3.67;;;2.00;;
60169;SDS011;46042;49.444;6.862;2024-03-23T06:38:04;9.15;;;1.80;;
60169;SDS011;46042;49.444;6.862;2024-03-23T06:40:30;13.98;;;2.22;;
60169;SDS011;46042;49.444;6.862;2024-03-23T06:42:56;3.92;;;1.70;;
60169;SDS011;46042;49.444;6.862;2024-03-23T06:45:21;6.68;;;2.05;;
60169;SDS011;46042;49.444;6.862;2024-03-23T06:47:49;5.10;;;1.77;;
60169;SDS011;46042;49.444;6.862;2024-03-23T06:50:15;3.45;;;2.20;;
60169;SDS011;46042;49.444;6.862;2024-03-23T06:52:42;7.65;;;2.45;;
60169;SDS011;46042;49.444;6.862;2024-03-23T06:55:07;5.47;;;2.60;;
60169;SDS011;46042;49.444;6.862;2024-03-23T06:57:34;10.80;;;2.38;;
60169;SDS011;46042;49.444;6.862;2024-03-23T06:59:59;4.68;;;1.88;;
60169;SDS011;46042;49.444;6.862;2024-03-23T07:02:26;3.67;;;1.77;;
60169;SDS011;46042;49.444;6.862;2024-03-23T07:04:52;6.25;;;2.42;;
60169;SDS011;46042;49.444;6.862;2024-03-23T07:07:18;10.07;;;2.70;;
60169;SDS011;46042;49.444;6.862;2024-03-23T07:09:43;10.02;;;2.72;;
60169;SDS011;46042;49.444;6.862;2024-03-23T07:12:09;5.95;;;2.65;;
60169;SDS011;46042;49.444;6.862;2024-03-23T07:14:36;4.90;;;2.40;;
60169;SDS011;46042;49.444;6.862;2024-03-23T07:17:02;9.68;;;3.40;;
60169;SDS011;46042;49.444;6.862;2024-03-23T07:19:28;4.78;;;2.35;;
60169;SDS011;46042;49.444;6.862;2024-03-23T07:21:53;5.13;;;2.65;;
60169;SDS011;46042;49.444;6.862;2024-03-23T07:24:19;4.50;;;2.65;;
60169;SDS011;46042;49.444;6.862;2024-03-23T07:26:45;6.75;;;3.78;;
60169;SDS011;46042;49.444;6.862;2024-03-23T07:29:11;8.80;;;3.15;;
60169;SDS011;46042;49.444;6.862;2024-03-23T07:31:37;13.45;;;3.72;;
60169;SDS011;46042;49.444;6.862;2024-03-23T07:34:04;6.68;;;2.92;;
60169;SDS011;46042;49.444;6.862;2024-03-23T07:36:31;7.15;;;3.88;;
60169;SDS011;46042;49.444;6.862;2024-03-23T07:38:59;8.23;;;3.75;;
60169;SDS011;46042;49.444;6.862;2024-03-23T07:41:25;8.73;;;3.22;;
60169;SDS011;46042;49.444;6.862;2024-03-23T07:43:53;9.35;;;4.05;;
60169;SDS011;46042;49.444;6.862;2024-03-23T07:46:20;8.15;;;3.85;;
60169;SDS011;46042;49.444;6.862;2024-03-23T07:48:46;9.98;;;4.03;;
60169;SDS011;46042;49.444;6.862;2024-03-23T07:51:17;9.23;;;3.92;;
60169;SDS011;46042;49.444;6.862;2024-03-23T07:53:45;7.45;;;4.07;;
60169;SDS011;46042;49.444;6.862;2024-03-23T07:56:11;8.75;;;4.38;;
60169;SDS011;46042;49.444;6.862;2024-03-23T07:58:38;10.98;;;3.88;;
60169;SDS011;46042;49.444;6.862;2024-03-23T08:01:11;6.82;;;3.50;;
60169;SDS011;46042;49.444;6.862;2024-03-23T08:03:39;8.63;;;4.30;;
60169;SDS011;46042;49.444;6.862;2024-03-23T08:06:16;8.73;;;3.63;;
60169;SDS011;46042;49.444;6.862;2024-03-23T08:08:48;10.02;;;3.72;;
60169;SDS011;46042;49.444;6.862;2024-03-23T08:11:28;9.73;;;4.15;;
60169;SDS011;46042;49.444;6.862;2024-03-23T08:13:56;9.45;;;3.88;;
60169;SDS011;46042;49.444;6.862;2024-03-23T08:16:23;6.50;;;3.33;;
60169;SDS011;46042;49.444;6.862;2024-03-23T08:18:53;12.07;;;4.15;;
60169;SDS011;46042;49.444;6.862;2024-03-23T08:23:46;6.38;;;2.95;;
60169;SDS011;46042;49.444;6.862;2024-03-23T08:26:14;10.00;;;3.90;;
60169;SDS011;46042;49.444;6.862;2024-03-23T08:28:41;10.65;;;3.60;;
60169;SDS011;46042;49.444;6.862;2024-03-23T08:31:08;9.30;;;3.40;;
60169;SDS011;46042;49.444;6.862;2024-03-23T08:33:34;7.47;;;4.35;;
60169;SDS011;46042;49.444;6.862;2024-03-23T08:36:05;8.43;;;4.05;;
60169;SDS011;46042;49.444;6.862;2024-03-23T08:43:35;7.97;;;3.58;;
60169;SDS011;46042;49.444;6.862;2024-03-23T08:46:06;11.77;;;4.53;;
60169;SDS011;46042;49.444;6.862;2024-03-23T08:48:37;10.15;;;3.35;;
60169;SDS011;46042;49.444;6.862;2024-03-23T08:51:04;11.82;;;3.70;;
60169;SDS011;46042;49.444;6.862;2024-03-23T08:53:37;8.03;;;3.37;;
60169;SDS011;46042;49.444;6.862;2024-03-23T08:56:03;6.80;;;3.58;;
60169;SDS011;46042;49.444;6.862;2024-03-23T08:58:30;9.57;;;5.32;;
60169;SDS011;46042;49.444;6.862;2024-03-23T09:01:03;9.23;;;3.50;;
60169;SDS011;46042;49.444;6.862;2024-03-23T09:03:30;8.15;;;3.17;;
60169;SDS011;46042;49.444;6.862;2024-03-23T09:05:56;7.55;;;3.47;;
60169;SDS011;46042;49.444;6.862;2024-03-23T09:08:23;6.07;;;3.35;;
60169;SDS011;46042;49.444;6.862;2024-03-23T09:10:49;8.27;;;3.13;;
60169;SDS011;46042;49.444;6.862;2024-03-23T09:13:15;8.82;;;3.67;;
60169;SDS011;46042;49.444;6.862;2024-03-23T09:15:48;12.32;;;3.60;;
60169;SDS011;46042;49.444;6.862;2024-03-23T09:18:15;5.95;;;3.05;;
60169;SDS011;46042;49.444;6.862;2024-03-23T09:20:41;11.77;;;3.83;;
60169;SDS011;46042;49.444;6.862;2024-03-23T09:23:07;11.38;;;4.03;;
60169;SDS011;46042;49.444;6.862;2024-03-23T09:25:39;6.28;;;2.67;;
60169;SDS011;46042;49.444;6.862;2024-03-23T09:28:06;9.50;;;3.10;;
60169;SDS011;46042;49.444;6.862;2024-03-23T09:30:34;6.10;;;2.50;;
60169;SDS011;46042;49.444;6.862;2024-03-23T09:33:01;7.88;;;3.25;;
60169;SDS011;46042;49.444;6.862;2024-03-23T09:35:28;5.35;;;2.85;;
60169;SDS011;46042;49.444;6.862;2024-03-23T09:37:54;5.28;;;2.80;;
60169;SDS011;46042;49.444;6.862;2024-03-23T09:40:20;6.93;;;2.50;;
60169;SDS011;46042;49.444;6.862;2024-03-23T09:42:50;5.18;;;2.33;;
60169;SDS011;46042;49.444;6.862;2024-03-23T09:45:17;5.95;;;2.88;;
60169;SDS011;46042;49.444;6.862;2024-03-23T09:47:46;6.90;;;2.92;;
60169;SDS011;46042;49.444;6.862;2024-03-23T09:50:13;6.28;;;2.28;;
60169;SDS011;46042;49.444;6.862;2024-03-23T09:52:40;5.55;;;2.65;;
60169;SDS011;46042;49.444;6.862;2024-03-23T09:55:08;4.60;;;2.55;;
60169;SDS011;46042;49.444;6.862;2024-03-23T09:57:34;6.47;;;2.10;;
60169;SDS011;46042;49.444;6.862;2024-03-23T10:00:01;8.75;;;3.00;;
60169;SDS011;46042;49.444;6.862;2024-03-23T10:02:30;7.35;;;2.40;;
60169;SDS011;46042;49.444;6.862;2024-03-23T10:04:56;9.63;;;2.63;;
60169;SDS011;46042;49.444;6.862;2024-03-23T10:07:23;5.22;;;2.75;;
60169;SDS011;46042;49.444;6.862;2024-03-23T10:09:49;7.57;;;3.40;;
60169;SDS011;46042;49.444;6.862;2024-03-23T10:12:18;8.20;;;3.10;;
60169;SDS011;46042;49.444;6.862;2024-03-23T10:14:45;7.40;;;2.70;;
60169;SDS011;46042;49.444;6.862;2024-03-23T10:17:12;6.80;;;2.90;;
60169;SDS011;46042;49.444;6.862;2024-03-23T10:19:48;6.63;;;2.70;;
60169;SDS011;46042;49.444;6.862;2024-03-23T10:22:17;7.85;;;2.75;;
60169;SDS011;46042;49.444;6.862;2024-03-23T10:24:47;7.53;;;2.55;;
60169;SDS011;46042;49.444;6.862;2024-03-23T10:27:18;4.35;;;1.67;;
60169;SDS011;46042;49.444;6.862;2024-03-23T10:29:45;4.00;;;1.90;;
60169;SDS011;46042;49.444;6.862;2024-03-23T10:32:13;4.20;;;1.63;;
60169;SDS011;46042;49.444;6.862;2024-03-23T10:34:43;5.57;;;1.50;;
60169;SDS011;46042;49.444;6.862;2024-03-23T10:37:10;4.22;;;1.77;;
60169;SDS011;46042;49.444;6.862;2024-03-23T10:39:37;2.97;;;1.48;;
60169;SDS011;46042;49.444;6.862;2024-03-23T10:42:07;2.90;;;1.40;;
60169;SDS011;46042;49.444;6.862;2024-03-23T10:44:35;3.88;;;1.67;;
60169;SDS011;46042;49.444;6.862;2024-03-23T10:47:02;3.60;;;1.80;;
60169;SDS011;46042;49.444;6.862;2024-03-23T10:49:29;5.32;;;1.52;;
60169;SDS011;46042;49.444;6.862;2024-03-23T10:52:00;6.60;;;2.47;;
60169;SDS011;46042;49.444;6.862;2024-03-23T10:54:30;3.47;;;2.07;;
60169;SDS011;46042;49.444;6.862;2024-03-23T10:56:58;6.70;;;1.90;;
60169;SDS011;46042;49.444;6.862;2024-03-23T10:59:29;6.32;;;1.73;;
60169;SDS011;46042;49.444;6.862;2024-03-23T11:01:57;5.65;;;2.03;;
60169;SDS011;46042;49.444;6.862;2024-03-23T11:06:59;2.35;;;1.10;;
60169;SDS011;46042;49.444;6.862;2024-03-23T11:12:46;2.25;;;1.00;;
60169;SDS011;46042;49.444;6.862;2024-03-23T11:14:47;3.10;;;1.25;;
60169;SDS011;46042;49.444;6.862;2024-03-23T11:17:20;2.13;;;1.20;;
60169;SDS011;46042;49.444;6.862;2024-03-23T11:25:17;2.67;;;1.27;;
60169;SDS011;46042;49.444;6.862;2024-03-23T11:27:44;1.58;;;1.13;;
60169;SDS011;46042;49.444;6.862;2024-03-23T11:30:18;2.60;;;0.90;;
60169;SDS011;46042;49.444;6.862;2024-03-23T11:32:48;2.42;;;0.95;;
60169;SDS011;46042;49.444;6.862;2024-03-23T11:35:28;0.73;;;0.73;;
60169;SDS011;46042;49.444;6.862;2024-03-23T11:40:33;1.27;;;0.80;;
60169;SDS011;46042;49.444;6.862;2024-03-23T11:43:10;1.52;;;1.15;;
60169;SDS011;46042;49.444;6.862;2024-03-23T11:45:39;1.65;;;1.02;;
60169;SDS011;46042;49.444;6.862;2024-03-23T11:50:38;4.63;;;1.00;;
60169;SDS011;46042;49.444;6.862;2024-03-23T11:53:11;2.55;;;1.33;;
60169;SDS011;46042;49.444;6.862;2024-03-23T11:55:41;4.35;;;1.30;;
60169;SDS011;46042;49.444;6.862;2024-03-23T11:58:24;2.50;;;1.40;;
60169;SDS011;46042;49.444;6.862;2024-03-23T12:01:04;4.32;;;1.50;;
60169;SDS011;46042;49.444;6.862;2024-03-23T12:03:30;2.45;;;1.60;;
60169;SDS011;46042;49.444;6.862;2024-03-23T12:05:58;4.53;;;1.23;;
60169;SDS011;46042;49.444;6.862;2024-03-23T12:08:34;3.53;;;1.42;;
60169;SDS011;46042;49.444;6.862;2024-03-23T12:11:07;1.10;;;1.00;;
60169;SDS011;46042;49.444;6.862;2024-03-23T12:13:36;3.10;;;1.30;;
60169;SDS011;46042;49.444;6.862;2024-03-23T12:18:39;6.43;;;1.92;;
60169;SDS011;46042;49.444;6.862;2024-03-23T12:21:09;1.20;;;1.00;;
60169;SDS011;46042;49.444;6.862;2024-03-23T12:23:35;4.60;;;1.30;;
60169;SDS011;46042;49.444;6.862;2024-03-23T12:26:04;2.78;;;1.35;;
60169;SDS011;46042;49.444;6.862;2024-03-23T12:28:30;3.22;;;1.23;;
60169;SDS011;46042;49.444;6.862;2024-03-23T12:30:55;3.80;;;1.50;;
60169;SDS011;46042;49.444;6.862;2024-03-23T12:33:22;2.58;;;1.35;;
60169;SDS011;46042;49.444;6.862;2024-03-23T12:35:49;2.10;;;1.20;;
60169;SDS011;46042;49.444;6.862;2024-03-23T12:38:16;3.20;;;1.10;;
60169;SDS011;46042;49.444;6.862;2024-03-23T12:40:45;6.05;;;2.13;;
60169;SDS011;46042;49.444;6.862;2024-03-23T12:43:13;3.65;;;1.40;;
60169;SDS011;46042;49.444;6.862;2024-03-23T12:45:39;3.63;;;1.20;;
60169;SDS011;46042;49.444;6.862;2024-03-23T12:48:05;2.10;;;0.90;;
60169;SDS011;46042;49.444;6.862;2024-03-23T12:50:31;1.05;;;0.70;;
60169;SDS011;46042;49.444;6.862;2024-03-23T12:52:57;1.55;;;0.63;;
60169;SDS011;46042;49.444;6.862;2024-03-23T12:55:23;0.70;;;0.70;;
60169;SDS011;46042;49.444;6.862;2024-03-23T12:57:49;1.60;;;0.80;;
60169;SDS011;46042;49.444;6.862;2024-03-23T13:00:15;0.93;;;0.77;;
60169;SDS011;46042;49.444;6.862;2024-03-23T13:02:42;1.42;;;0.90;;
60169;SDS011;46042;49.444;6.862;2024-03-23T13:05:08;1.95;;;1.05;;
60169;SDS011;46042;49.444;6.862;2024-03-23T13:07:37;0.80;;;0.80;;
60169;SDS011;46042;49.444;6.862;2024-03-23T13:10:04;2.90;;;1.30;;
60169;SDS011;46042;49.444;6.862;2024-03-23T13:12:31;5.03;;;1.08;;
60169;SDS011;46042;49.444;6.862;2024-03-23T13:14:58;2.10;;;1.00;;
60169;SDS011;46042;49.444;6.862;2024-03-23T13:17:26;1.90;;;1.08;;
60169;SDS011;46042;49.444;6.862;2024-03-23T13:19:52;3.67;;;1.60;;
60169;SDS011;46042;49.444;6.862;2024-03-23T13:22:19;2.10;;;0.98;;
60169;SDS011;46042;49.444;6.862;2024-03-23T13:24:44;1.85;;;0.90;;
60169;SDS011;46042;49.444;6.862;2024-03-23T13:27:10;3.40;;;1.17;;
60169;SDS011;46042;49.444;6.862;2024-03-23T13:29:37;2.42;;;1.30;;
60169;SDS011;46042;49.444;6.862;2024-03-23T13:32:03;2.58;;;1.23;;
60169;SDS011;46042;49.444;6.862;2024-03-23T13:34:29;2.25;;;1.35;;
60169;SDS011;46042;49.444;6.862;2024-03-23T13:36:55;4.35;;;1.55;;
60169;SDS011;46042;49.444;6.862;2024-03-23T13:39:24;7.75;;;1.90;;
60169;SDS011;46042;49.444;6.862;2024-03-23T13:41:52;5.43;;;1.70;;
60169;SDS011;46042;49.444;6.862;2024-03-23T13:44:20;3.83;;;1.30;;
60169;SDS011;46042;49.444;6.862;2024-03-23T13:46:46;1.90;;;1.27;;
60169;SDS011;46042;49.444;6.862;2024-03-23T13:49:24;4.07;;;2.13;;
60169;SDS011;46042;49.444;6.862;2024-03-23T13:51:52;3.35;;;1.70;;
60169;SDS011;46042;49.444;6.862;2024-03-23T13:54:22;3.45;;;1.65;;
60169;SDS011;46042;49.444;6.862;2024-03-23T13:56:50;2.95;;;1.15;;
60169;SDS011;46042;49.444;6.862;2024-03-23T13:59:16;2.67;;;1.13;;
60169;SDS011;46042;49.444;6.862;2024-03-23T14:01:43;2.13;;;1.00;;
60169;SDS011;46042;49.444;6.862;2024-03-23T14:04:12;10.43;;;1.35;;
60169;SDS011;46042;49.444;6.862;2024-03-23T14:06:39;2.72;;;1.38;;
60169;SDS011;46042;49.444;6.862;2024-03-23T14:09:07;2.47;;;1.73;;
60169;SDS011;46042;49.444;6.862;2024-03-23T14:11:36;2.45;;;1.50;;
60169;SDS011;46042;49.444;6.862;2024-03-23T14:14:04;2.67;;;1.45;;
60169;SDS011;46042;49.444;6.862;2024-03-23T14:16:31;0.98;;;0.82;;
60169;SDS011;46042;49.444;6.862;2024-03-23T14:18:57;1.58;;;1.00;;
60169;SDS011;46042;49.444;6.862;2024-03-23T14:21:23;2.60;;;1.65;;
60169;SDS011;46042;49.444;6.862;2024-03-23T14:23:49;2.92;;;1.73;;
60169;SDS011;46042;49.444;6.862;2024-03-23T14:26:19;2.03;;;1.33;;
60169;SDS011;46042;49.444;6.862;2024-03-23T14:28:45;2.63;;;1.10;;
60169;SDS011;46042;49.444;6.862;2024-03-23T14:31:11;5.88;;;1.33;;
60169;SDS011;46042;49.444;6.862;2024-03-23T14:33:37;3.33;;;1.30;;
60169;SDS011;46042;49.444;6.862;2024-03-23T14:36:04;2.30;;;1.15;;
60169;SDS011;46042;49.444;6.862;2024-03-23T14:38:30;1.42;;;1.05;;
60169;SDS011;46042;49.444;6.862;2024-03-23T14:41:00;2.10;;;1.60;;
60169;SDS011;46042;49.444;6.862;2024-03-23T14:43:28;1.30;;;0.98;;
60169;SDS011;46042;49.444;6.862;2024-03-23T14:46:14;2.13;;;1.17;;
60169;SDS011;46042;49.444;6.862;2024-03-23T14:48:41;4.05;;;1.33;;
60169;SDS011;46042;49.444;6.862;2024-03-23T14:51:08;1.70;;;0.93;;
60169;SDS011;46042;49.444;6.862;2024-03-23T14:53:35;4.35;;;1.20;;
60169;SDS011;46042;49.444;6.862;2024-03-23T14:56:08;1.67;;;0.85;;
60169;SDS011;46042;49.444;6.862;2024-03-23T14:58:40;1.65;;;0.80;;
60169;SDS011;46042;49.444;6.862;2024-03-23T15:01:06;3.65;;;1.05;;
60169;SDS011;46042;49.444;6.862;2024-03-23T15:03:36;4.88;;;0.90;;
60169;SDS011;46042;49.444;6.862;2024-03-23T15:06:04;0.73;;;0.70;;
60169;SDS011;46042;49.444;6.862;2024-03-23T15:08:30;0.60;;;0.60;;
60169;SDS011;46042;49.444;6.862;2024-03-23T15:11:00;1.13;;;0.85;;
60169;SDS011;46042;49.444;6.862;2024-03-23T15:13:37;0.75;;;0.70;;
60169;SDS011;46042;49.444;6.862;2024-03-23T15:16:04;0.70;;;0.70;;
60169;SDS011;46042;49.444;6.862;2024-03-23T15:18:34;0.77;;;0.77;;
60169;SDS011;46042;49.444;6.862;2024-03-23T15:21:01;1.58;;;0.90;;
60169;SDS011;46042;49.444;6.862;2024-03-23T15:23:30;0.80;;;0.80;;
60169;SDS011;46042;49.444;6.862;2024-03-23T15:26:00;1.80;;;1.02;;
60169;SDS011;46042;49.444;6.862;2024-03-23T15:28:27;1.80;;;0.75;;
60169;SDS011;46042;49.444;6.862;2024-03-23T15:31:14;0.65;;;0.65;;
60169;SDS011;46042;49.444;6.862;2024-03-23T15:33:40;1.27;;;1.05;;
60169;SDS011;46042;49.444;6.862;2024-03-23T15:36:06;1.60;;;0.93;;
60169;SDS011;46042;49.444;6.862;2024-03-23T15:38:32;0.90;;;0.90;;
60169;SDS011;46042;49.444;6.862;2024-03-23T15:40:58;1.83;;;0.80;;
60169;SDS011;46042;49.444;6.862;2024-03-23T15:43:25;1.80;;;0.90;;
60169;SDS011;46042;49.444;6.862;2024-03-23T15:45:57;1.75;;;0.70;;
60169;SDS011;46042;49.444;6.862;2024-03-23T15:48:27;0.80;;;0.80;;
60169;SDS011;46042;49.444;6.862;2024-03-23T15:50:54;2.10;;;1.55;;
60169;SDS011;46042;49.444;6.862;2024-03-23T15:53:21;5.07;;;2.50;;
60169;SDS011;46042;49.444;6.862;2024-03-23T15:55:57;2.20;;;1.30;;
60169;SDS011;46042;49.444;6.862;2024-03-23T15:58:23;2.45;;;1.65;;
60169;SDS011;46042;49.444;6.862;2024-03-23T16:00:56;4.03;;;2.00;;
60169;SDS011;46042;49.444;6.862;2024-03-23T16:03:26;3.63;;;1.80;;
60169;SDS011;46042;49.444;6.862;2024-03-23T16:05:53;9.25;;;3.53;;